Time;durP1;ratioP1;P1;durP2;ratioP2;P2;SDS_P1;SDS_P2;PMS_P1;PMS_P2;Temp;Humidity;BMP_temperature;BMP_pressure;BME280_temperature;BME280_humidity;BME280_pressure;Samples;Min_cycle;Max_cycle;Signal;HPM_P1;HPM_P2
2021/09/10 00:01:57;;;;;;;3.20;2.60;;;23.50;58.60;;;;;;4992662;28;20463;-77
2021/09/10 00:04:24;;;;;;;2.85;2.70;;;23.50;58.50;;;;;;4992351;28;20064;-76
2021/09/10 00:06:52;;;;;;;2.63;2.42;;;23.70;58.80;;;;;;4992529;28;20442;-76
2021/09/10 00:09:20;;;;;;;2.80;2.57;;;23.60;58.00;;;;;;4994115;28;20030;-78
2021/09/10 00:11:47;;;;;;;2.70;2.50;;;23.60;57.60;;;;;;4994072;28;20041;-78
2021/09/10 00:14:15;;;;;;;2.33;2.20;;;23.50;57.80;;;;;;4995851;28;20391;-78
2021/09/10 00:16:42;;;;;;;2.60;2.40;;;23.50;59.00;;;;;;4996766;28;20496;-77
2021/09/10 00:19:10;;;;;;;2.65;2.47;;;23.50;59.00;;;;;;4993630;28;20077;-78
2021/09/10 00:21:37;;;;;;;2.40;2.30;;;23.60;58.30;;;;;;4996706;28;20022;-77
2021/09/10 00:24:05;;;;;;;2.72;2.53;;;23.80;57.20;;;;;;4995682;28;20031;-78
2021/09/10 00:26:33;;;;;;;2.78;2.58;;;23.70;57.10;;;;;;4994913;28;20463;-78
2021/09/10 00:29:00;;;;;;;2.75;2.55;;;23.90;57.40;;;;;;4995737;28;20030;-78
2021/09/10 00:31:27;;;;;;;2.90;2.70;;;23.90;57.10;;;;;;4997406;28;20030;-78
2021/09/10 00:33:55;;;;;;;3.33;3.00;;;24.00;57.30;;;;;;4996080;28;20025;-78
2021/09/10 00:36:22;;;;;;;11.00;3.40;;;24.00;57.20;;;;;;4994304;28;20077;-78
2021/09/10 00:38:49;;;;;;;2.83;2.45;;;24.00;57.90;;;;;;4997254;28;20022;-76
2021/09/10 00:41:17;;;;;;;3.40;2.47;;;24.10;57.60;;;;;;4997007;28;20527;-78
2021/09/10 00:43:44;;;;;;;3.00;2.30;;;24.20;57.70;;;;;;4999035;28;20033;-77
2021/09/10 00:46:11;;;;;;;3.42;2.55;;;24.20;58.20;;;;;;4995370;28;20537;-77
2021/09/10 00:48:41;;;;;;;4.25;2.70;;;24.20;57.50;;;;;;4995981;28;20034;-78
2021/09/10 00:51:09;;;;;;;3.10;2.78;;;24.40;58.20;;;;;;4995104;28;20118;-75
2021/09/10 00:53:37;;;;;;;3.03;2.70;;;24.50;57.60;;;;;;4992489;28;20050;-75
2021/09/10 00:56:06;;;;;;;2.65;2.53;;;24.50;58.00;;;;;;4992726;28;20168;-75
2021/09/10 00:58:33;;;;;;;2.92;2.72;;;24.60;57.70;;;;;;4994579;28;20030;-76
2021/09/10 01:01:00;;;;;;;4.30;2.92;;;24.80;58.70;;;;;;4992125;28;20033;-75
2021/09/10 01:03:28;;;;;;;3.33;2.78;;;25.00;59.40;;;;;;4994461;28;20105;-81
2021/09/10 01:05:58;;;;;;;3.63;2.90;;;25.20;57.60;;;;;;4995195;28;20033;-79
2021/09/10 01:08:27;;;;;;;3.95;2.55;;;25.20;59.50;;;;;;4994425;28;20057;-78
2021/09/10 01:10:55;;;;;;;3.65;2.65;;;25.20;58.40;;;;;;4993870;28;20037;-74
2021/09/10 01:13:24;;;;;;;2.80;2.60;;;25.20;57.10;;;;;;4991993;28;20030;-76
2021/09/10 01:15:52;;;;;;;4.80;3.22;;;25.20;58.20;;;;;;4992407;28;20019;-76
2021/09/10 01:18:19;;;;;;;8.57;3.88;;;24.70;65.80;;;;;;4992027;28;20026;-75
2021/09/10 01:20:50;;;;;;;9.00;3.95;;;24.20;68.10;;;;;;4993240;28;20034;-76
2021/09/10 01:23:18;;;;;;;7.90;3.75;;;24.10;70.40;;;;;;4993135;28;20054;-76
2021/09/10 01:25:45;;;;;;;8.18;4.10;;;24.00;72.40;;;;;;4991705;28;20121;-77
2021/09/10 01:28:15;;;;;;;7.05;3.75;;;23.80;71.90;;;;;;4993420;28;20082;-77
2021/09/10 01:30:43;;;;;;;7.32;4.53;;;23.30;73.10;;;;;;4991975;28;20027;-75
2021/09/10 01:33:12;;;;;;;7.15;3.80;;;22.90;73.80;;;;;;4995293;28;20030;-80
2021/09/10 01:35:40;;;;;;;9.82;3.75;;;23.00;74.80;;;;;;4996770;28;20479;-79
2021/09/10 01:38:09;;;;;;;7.20;3.88;;;23.10;74.50;;;;;;4996536;28;20490;-77
2021/09/10 01:40:39;;;;;;;7.80;4.20;;;23.10;73.60;;;;;;4995565;28;20026;-79
2021/09/10 01:43:08;;;;;;;10.75;4.32;;;23.10;74.90;;;;;;4996734;28;20018;-77
2021/09/10 01:45:36;;;;;;;10.90;4.30;;;23.30;75.50;;;;;;4997327;28;20034;-78
2021/09/10 01:48:03;;;;;;;10.00;4.35;;;23.30;77.20;;;;;;4995811;28;20027;-79
2021/09/10 01:50:31;;;;;;;12.52;5.22;;;23.20;78.70;;;;;;4996537;28;20502;-76
2021/09/10 01:52:58;;;;;;;16.45;5.70;;;23.20;81.70;;;;;;4995015;28;20095;-76
2021/09/10 01:55:25;;;;;;;9.77;5.45;;;23.10;83.30;;;;;;4994965;28;20109;-76
2021/09/10 01:57:54;;;;;;;13.02;5.22;;;23.20;83.20;;;;;;4994686;28;20027;-78
2021/09/10 02:00:21;;;;;;;13.25;4.88;;;23.20;83.40;;;;;;4994934;28;20047;-76
2021/09/10 02:02:49;;;;;;;11.15;4.88;;;23.10;83.20;;;;;;4995034;28;20172;-78
2021/09/10 02:05:16;;;;;;;15.40;4.93;;;23.20;83.50;;;;;;4995171;28;20368;-78
2021/09/10 02:07:44;;;;;;;15.75;5.75;;;23.30;83.20;;;;;;4995916;28;20031;-75
2021/09/10 02:10:13;;;;;;;14.98;4.95;;;22.90;83.10;;;;;;4994514;28;20169;-78
2021/09/10 02:12:41;;;;;;;14.65;4.63;;;22.50;85.10;;;;;;4996173;28;20467;-76
2021/09/10 02:15:09;;;;;;;20.15;5.15;;;22.30;85.20;;;;;;4995089;28;20030;-79
2021/09/10 02:17:37;;;;;;;12.75;4.70;;;21.90;87.30;;;;;;4995356;28;20022;-82
2021/09/10 02:20:08;;;;;;;16.85;4.75;;;22.00;88.90;;;;;;4995203;28;20088;-80
2021/09/10 02:22:36;;;;;;;16.30;5.95;;;22.00;89.80;;;;;;4995546;28;20030;-77
2021/09/10 02:25:04;;;;;;;14.52;4.90;;;22.10;89.80;;;;;;4994401;28;20046;-77
2021/09/10 02:27:31;;;;;;;13.38;4.70;;;22.10;89.40;;;;;;4995670;28;20030;-79
2021/09/10 02:29:59;;;;;;;17.15;5.65;;;22.30;88.90;;;;;;4994431;28;20117;-79
2021/09/10 02:32:26;;;;;;;15.15;5.78;;;22.20;90.10;;;;;;4994363;28;20197;-78
2021/09/10 02:34:53;;;;;;;14.07;5.05;;;22.40;90.10;;;;;;4994018;28;20055;-78
2021/09/10 02:37:21;;;;;;;16.50;5.88;;;22.50;90.60;;;;;;4995137;28;20026;-80
2021/09/10 02:39:48;;;;;;;19.88;6.22;;;22.10;91.20;;;;;;4995304;28;20029;-80
2021/09/10 02:42:16;;;;;;;22.48;7.72;;;22.10;92.50;;;;;;4993931;28;20030;-77
2021/09/10 02:44:43;;;;;;;16.48;5.88;;;22.00;92.70;;;;;;4995149;28;20022;-80
2021/09/10 02:47:11;;;;;;;17.33;5.88;;;21.80;93.30;;;;;;4995244;28;20027;-77
2021/09/10 02:49:38;;;;;;;17.10;5.60;;;21.80;93.60;;;;;;4993694;28;20126;-79
2021/09/10 02:52:06;;;;;;;16.40;4.88;;;21.80;93.60;;;;;;4995319;28;20046;-79
2021/09/10 02:54:33;;;;;;;21.00;6.03;;;21.90;93.20;;;;;;4994966;28;20046;-80
2021/09/10 02:57:01;;;;;;;19.15;5.78;;;21.60;94.40;;;;;;4994880;28;20030;-80
2021/09/10 02:59:28;;;;;;;22.48;5.93;;;21.50;94.60;;;;;;4993854;28;20026;-79
2021/09/10 03:01:55;;;;;;;15.77;5.05;;;21.70;95.00;;;;;;4993588;28;20026;-80
2021/09/10 03:04:23;;;;;;;18.70;5.63;;;21.60;95.50;;;;;;4994559;28;20022;-80
2021/09/10 03:06:50;;;;;;;20.02;5.30;;;21.80;95.60;;;;;;4993717;28;20109;-80
2021/09/10 03:09:17;;;;;;;17.77;5.32;;;22.20;95.30;;;;;;4993317;28;20022;-80
2021/09/10 03:11:45;;;;;;;22.80;6.00;;;22.50;94.90;;;;;;4994669;28;20537;-80
2021/09/10 03:14:12;;;;;;;17.27;5.90;;;22.50;94.60;;;;;;4993419;28;20034;-80
2021/09/10 03:16:39;;;;;;;18.65;5.88;;;22.40;94.90;;;;;;4994048;28;20165;-80
2021/09/10 03:19:07;;;;;;;21.48;5.43;;;22.40;95.20;;;;;;4993566;28;20113;-80
2021/09/10 03:21:34;;;;;;;18.55;5.70;;;22.30;95.90;;;;;;4993977;28;20375;-80
2021/09/10 03:24:01;;;;;;;17.48;5.32;;;22.30;96.30;;;;;;4994446;28;20503;-81
2021/09/10 03:26:29;;;;;;;20.60;5.72;;;22.30;96.50;;;;;;4993130;28;20041;-79
2021/09/10 03:28:56;;;;;;;18.50;5.80;;;22.40;96.70;;;;;;4994883;28;20026;-80
2021/09/10 03:31:24;;;;;;;22.67;6.80;;;22.10;97.10;;;;;;4993218;28;20463;-79
2021/09/10 03:33:51;;;;;;;15.40;5.75;;;22.30;97.50;;;;;;4993953;28;20029;-80
2021/09/10 03:36:18;;;;;;;18.55;6.05;;;22.40;97.30;;;;;;4993751;28;20048;-80
2021/09/10 03:38:46;;;;;;;18.60;6.05;;;22.30;97.10;;;;;;4994027;28;20019;-80
2021/09/10 03:41:13;;;;;;;31.08;6.13;;;22.50;96.80;;;;;;4993920;28;20034;-79
2021/09/10 03:43:42;;;;;;;24.20;6.00;;;22.30;97.80;;;;;;4992844;28;20054;-79
2021/09/10 03:46:13;;;;;;;21.70;6.20;;;22.40;97.40;;;;;;4992644;28;20026;-78
2021/09/10 03:48:40;;;;;;;22.15;5.03;;;22.30;97.70;;;;;;4976759;28;20030;-80
2021/09/10 03:51:08;;;;;;;23.08;5.57;;;22.20;97.90;;;;;;4994768;28;20023;-77
2021/09/10 03:53:36;;;;;;;21.48;6.20;;;22.10;98.40;;;;;;4993313;28;20081;-78
2021/09/10 03:56:03;;;;;;;22.08;5.18;;;22.50;98.30;;;;;;4992603;28;20049;-77
2021/09/10 03:58:31;;;;;;;18.70;6.10;;;22.30;97.60;;;;;;4992995;28;20083;-77
2021/09/10 04:00:58;;;;;;;20.05;6.20;;;22.70;97.20;;;;;;4992850;28;20030;-78
2021/09/10 04:03:26;;;;;;;23.88;6.88;;;22.20;96.90;;;;;;4994444;28;20030;-78
2021/09/10 04:05:53;;;;;;;21.58;6.13;;;21.90;97.40;;;;;;4994242;28;20081;-78
2021/09/10 04:08:21;;;;;;;16.08;5.32;;;21.80;98.00;;;;;;4994942;28;20122;-82
2021/09/10 04:10:48;;;;;;;17.23;5.80;;;21.60;98.10;;;;;;4998353;28;20030;-80
2021/09/10 04:13:15;;;;;;;19.23;6.03;;;21.50;98.20;;;;;;4997567;28;20018;-80
2021/09/10 04:15:42;;;;;;;20.05;6.00;;;21.30;99.40;;;;;;4999875;28;20029;-79
2021/09/10 04:18:10;;;;;;;19.58;6.53;;;21.20;99.80;;;;;;4995244;28;20045;-80
2021/09/10 04:20:37;;;;;;;21.98;5.75;;;21.10;99.90;;;;;;4998007;28;20526;-79
2021/09/10 04:23:04;;;;;;;20.77;5.93;;;21.30;99.90;;;;;;4996922;28;20030;-80
2021/09/10 04:25:32;;;;;;;21.42;6.00;;;21.20;99.80;;;;;;4995383;28;20047;-78
2021/09/10 04:27:59;;;;;;;19.15;6.03;;;20.80;99.90;;;;;;4995676;28;20045;-78
2021/09/10 04:30:26;;;;;;;18.65;6.00;;;20.80;99.90;;;;;;4993394;28;20391;-77
2021/09/10 04:32:54;;;;;;;24.02;7.55;;;20.60;99.90;;;;;;4994047;28;20043;-80
2021/09/10 04:35:21;;;;;;;16.92;6.07;;;20.60;99.90;;;;;;4995190;28;20092;-78
2021/09/10 04:37:48;;;;;;;27.98;7.72;;;20.70;99.90;;;;;;4994658;28;20514;-78
2021/09/10 04:40:18;;;;;;;20.92;6.80;;;20.50;99.90;;;;;;4997118;28;20037;-80
2021/09/10 04:42:46;;;;;;;23.38;6.47;;;20.50;99.90;;;;;;4998926;28;20023;-78
2021/09/10 04:45:13;;;;;;;23.20;6.95;;;20.30;99.90;;;;;;4999122;28;20034;-79
2021/09/10 04:47:41;;;;;;;21.65;6.70;;;20.40;99.90;;;;;;4997038;28;20026;-80
2021/09/10 04:50:08;;;;;;;21.35;6.65;;;20.20;99.90;;;;;;5000061;28;20510;-78
2021/09/10 04:52:38;;;;;;;22.02;6.10;;;20.20;99.90;;;;;;4998331;28;20039;-78
2021/09/10 04:55:08;;;;;;;23.25;6.55;;;20.20;99.90;;;;;;4997879;28;20022;-79
2021/09/10 04:57:36;;;;;;;28.45;7.10;;;20.20;99.90;;;;;;4998693;28;20109;-78
2021/09/10 05:00:04;;;;;;;19.80;7.05;;;20.20;99.90;;;;;;5000938;28;20030;-79
2021/09/10 05:02:32;;;;;;;21.13;6.63;;;20.30;99.90;;;;;;5000792;28;20030;-80
2021/09/10 05:04:59;;;;;;;19.10;6.72;;;20.40;99.90;;;;;;5002756;28;20034;-80
2021/09/10 05:07:26;;;;;;;19.48;6.47;;;20.50;99.90;;;;;;5001311;28;20487;-81
2021/09/10 05:09:54;;;;;;;17.80;5.47;;;20.50;99.90;;;;;;5002428;28;20061;-79
2021/09/10 05:12:21;;;;;;;22.15;5.82;;;20.40;99.90;;;;;;5001086;28;20033;-80
2021/09/10 05:14:54;;;;;;;20.13;6.00;;;20.60;99.90;;;;;;5004402;28;20112;-81
2021/09/10 05:17:22;;;;;;;16.30;6.22;;;20.80;99.90;;;;;;5003911;28;20022;-79
2021/09/10 05:19:50;;;;;;;22.23;6.20;;;20.80;99.90;;;;;;5001674;28;20037;-79
2021/09/10 05:22:17;;;;;;;21.27;6.47;;;20.70;99.90;;;;;;4999854;28;20398;-79
2021/09/10 05:24:45;;;;;;;18.60;6.95;;;20.80;99.90;;;;;;4997895;28;20062;-78
2021/09/10 05:27:12;;;;;;;20.50;6.18;;;20.70;99.90;;;;;;4998395;28;20121;-77
2021/09/10 05:29:40;;;;;;;21.13;6.15;;;20.60;99.90;;;;;;4999401;28;20121;-79
2021/09/10 05:32:08;;;;;;;19.52;5.95;;;20.60;99.90;;;;;;4999304;28;20109;-79
2021/09/10 05:34:35;;;;;;;22.98;7.00;;;20.70;99.90;;;;;;4996442;28;20026;-79
2021/09/10 05:37:05;;;;;;;22.60;6.47;;;20.80;99.90;;;;;;5000047;28;20491;-78
2021/09/10 05:39:32;;;;;;;21.42;6.22;;;20.90;99.90;;;;;;5001478;28;20074;-76
2021/09/10 05:42:00;;;;;;;22.95;6.60;;;20.70;99.90;;;;;;4996247;28;20027;-79
2021/09/10 05:44:28;;;;;;;19.38;6.80;;;20.60;99.90;;;;;;4999853;28;20462;-80
2021/09/10 05:46:55;;;;;;;19.30;6.13;;;20.60;99.90;;;;;;5000160;28;20023;-78
2021/09/10 05:49:22;;;;;;;24.63;7.57;;;20.50;99.90;;;;;;5001806;28;20026;-78
2021/09/10 05:51:50;;;;;;;25.25;7.68;;;20.30;99.90;;;;;;5000895;28;20484;-79
2021/09/10 05:54:17;;;;;;;21.48;6.82;;;20.20;99.90;;;;;;4999047;28;20117;-79
2021/09/10 05:56:44;;;;;;;23.35;7.15;;;20.30;99.90;;;;;;5000251;28;20026;-78
2021/09/10 05:59:12;;;;;;;21.50;6.13;;;20.40;99.90;;;;;;5002059;28;20030;-78
2021/09/10 06:01:39;;;;;;;26.45;6.72;;;20.30;99.90;;;;;;5000663;28;20026;-77
2021/09/10 06:04:07;;;;;;;18.00;6.10;;;20.10;99.90;;;;;;4997439;28;20113;-79
2021/09/10 06:06:37;;;;;;;20.33;7.00;;;20.20;99.90;;;;;;4998828;28;20033;-78
2021/09/10 06:09:05;;;;;;;20.65;6.43;;;20.00;99.90;;;;;;4998113;28;20030;-78
2021/09/10 06:11:32;;;;;;;22.55;7.05;;;19.80;99.90;;;;;;4998448;28;20026;-79
2021/09/10 06:13:59;;;;;;;24.08;6.72;;;19.80;99.90;;;;;;4997975;28;20368;-79
2021/09/10 06:16:27;;;;;;;32.33;7.13;;;19.70;99.90;;;;;;4997262;28;20018;-80
2021/09/10 06:18:55;;;;;;;20.10;6.50;;;19.60;99.90;;;;;;4995657;28;20030;-80
2021/09/10 06:21:22;;;;;;;20.63;6.15;;;19.60;99.90;;;;;;4996168;28;20026;-79
2021/09/10 06:23:51;;;;;;;21.63;6.32;;;19.50;99.90;;;;;;4994917;28;20031;-78
2021/09/10 06:26:19;;;;;;;20.20;6.90;;;19.30;99.90;;;;;;4999331;28;20036;-77
2021/09/10 06:28:46;;;;;;;20.42;6.55;;;19.10;99.90;;;;;;4998481;28;20033;-76
2021/09/10 06:31:13;;;;;;;26.15;6.97;;;19.10;99.90;;;;;;4999506;28;20459;-76
2021/09/10 06:33:41;;;;;;;21.15;6.82;;;19.10;99.90;;;;;;5000819;28;20064;-76
2021/09/10 06:36:08;;;;;;;22.20;7.10;;;19.10;99.90;;;;;;4996397;28;20033;-76
2021/09/10 06:38:35;;;;;;;23.33;7.15;;;19.10;99.90;;;;;;4997047;28;20026;-77
2021/09/10 06:41:03;;;;;;;21.35;7.90;;;19.00;99.90;;;;;;4996779;28;20455;-76
2021/09/10 06:43:30;;;;;;;22.20;7.72;;;19.00;99.90;;;;;;4996747;28;20117;-77
2021/09/10 06:45:57;;;;;;;24.85;8.52;;;18.90;99.90;;;;;;5005237;28;20089;-78
2021/09/10 06:48:24;;;;;;;22.05;7.43;;;18.70;99.90;;;;;;5010800;28;20072;-78
2021/09/10 06:50:52;;;;;;;21.67;6.75;;;18.70;99.90;;;;;;5006956;28;20022;-78
2021/09/10 06:53:19;;;;;;;22.75;6.38;;;18.60;99.90;;;;;;5007050;28;20076;-77
2021/09/10 06:55:46;;;;;;;19.80;6.47;;;18.60;99.90;;;;;;5010428;28;20098;-78
2021/09/10 06:58:14;;;;;;;17.50;6.32;;;18.50;99.90;;;;;;5012100;28;20042;-79
2021/09/10 07:00:41;;;;;;;22.70;6.80;;;18.50;99.90;;;;;;5013275;28;20033;-78
2021/09/10 07:03:08;;;;;;;23.70;7.03;;;18.40;99.90;;;;;;5015895;28;20034;-79
2021/09/10 07:05:36;;;;;;;22.80;7.15;;;18.40;99.90;;;;;;5007540;28;20061;-80
2021/09/10 07:08:03;;;;;;;26.55;7.43;;;18.40;99.90;;;;;;5010644;28;20017;-79
2021/09/10 07:10:30;;;;;;;25.08;7.68;;;18.30;99.90;;;;;;5005961;28;20057;-78
2021/09/10 07:12:58;;;;;;;21.00;7.88;;;18.30;99.90;;;;;;5007795;28;20029;-79
2021/09/10 07:15:25;;;;;;;22.40;7.25;;;18.10;99.90;;;;;;5000317;28;20032;-79
2021/09/10 07:17:52;;;;;;;22.48;7.97;;;18.10;99.90;;;;;;5007306;28;20045;-78
2021/09/10 07:20:20;;;;;;;17.73;6.25;;;18.00;99.90;;;;;;5002572;28;20529;-77
2021/09/10 07:22:47;;;;;;;29.45;7.95;;;18.00;99.90;;;;;;4996307;28;20038;-77
2021/09/10 07:25:14;;;;;;;18.88;7.40;;;17.90;99.90;;;;;;4993952;28;20376;-75
2021/09/10 07:27:42;;;;;;;31.98;9.05;;;17.80;99.90;;;;;;4995569;28;20053;-75
2021/09/10 07:30:10;;;;;;;23.25;7.07;;;17.80;99.90;;;;;;4994780;28;20045;-76
2021/09/10 07:32:37;;;;;;;22.67;7.47;;;17.80;99.90;;;;;;4994937;28;20073;-77
2021/09/10 07:35:05;;;;;;;26.25;8.05;;;17.80;99.90;;;;;;5003243;28;20368;-79
2021/09/10 07:37:33;;;;;;;21.30;7.25;;;17.70;99.90;;;;;;4999454;28;20102;-77
2021/09/10 07:40:01;;;;;;;23.20;7.28;;;17.80;99.90;;;;;;4997154;28;20030;-78
2021/09/10 07:42:28;;;;;;;20.92;7.60;;;17.70;99.90;;;;;;5004675;28;20049;-79
2021/09/10 07:44:55;;;;;;;22.85;7.97;;;17.70;99.90;;;;;;5002009;28;20032;-78
2021/09/10 07:47:23;;;;;;;27.35;8.27;;;17.70;99.90;;;;;;4999292;28;20053;-78
2021/09/10 07:49:50;;;;;;;21.85;7.43;;;17.70;99.90;;;;;;4994848;28;20038;-78
2021/09/10 07:52:18;;;;;;;27.92;9.50;;;17.70;99.90;;;;;;4995365;28;20380;-77
2021/09/10 07:54:45;;;;;;;30.15;8.18;;;17.60;99.90;;;;;;4995551;28;20521;-78
2021/09/10 07:57:12;;;;;;;28.58;8.63;;;17.60;99.90;;;;;;4998742;28;20018;-78
2021/09/10 07:59:40;;;;;;;26.60;8.25;;;17.40;99.90;;;;;;5007652;28;20058;-79
2021/09/10 08:02:08;;;;;;;27.65;7.93;;;17.30;99.90;;;;;;5008924;28;20026;-79
2021/09/10 08:04:35;;;;;;;25.02;7.90;;;17.20;99.90;;;;;;5009098;28;20026;-79
2021/09/10 08:07:02;;;;;;;27.17;8.40;;;17.10;99.90;;;;;;5012787;28;20033;-79
2021/09/10 08:09:29;;;;;;;25.95;8.93;;;17.10;99.90;;;;;;5006882;28;20031;-79
2021/09/10 08:11:57;;;;;;;26.08;9.02;;;17.00;99.90;;;;;;5007147;28;20030;-79
2021/09/10 08:14:24;;;;;;;20.98;8.60;;;16.90;99.90;;;;;;5006458;28;20472;-79
2021/09/10 08:16:51;;;;;;;24.70;8.93;;;16.90;99.90;;;;;;5008247;28;20033;-79
2021/09/10 08:19:19;;;;;;;22.40;8.90;;;16.80;99.90;;;;;;5005984;28;20058;-79
2021/09/10 08:21:46;;;;;;;23.52;9.23;;;16.80;99.90;;;;;;5008249;28;20026;-78
2021/09/10 08:24:13;;;;;;;23.00;9.40;;;16.80;99.90;;;;;;5007815;28;20022;-79
2021/09/10 08:26:41;;;;;;;26.65;10.15;;;16.80;99.90;;;;;;5004168;28;20034;-79
2021/09/10 08:29:08;;;;;;;25.17;10.25;;;16.90;99.90;;;;;;5009406;28;20049;-79
2021/09/10 08:31:36;;;;;;;29.10;11.05;;;16.90;99.90;;;;;;5005861;28;20355;-79
2021/09/10 08:34:05;;;;;;;24.42;10.20;;;17.00;99.90;;;;;;5006484;28;20072;-79
2021/09/10 08:36:33;;;;;;;25.02;8.90;;;17.00;99.90;;;;;;5007967;28;20026;-79
2021/09/10 08:39:01;;;;;;;26.73;9.73;;;17.00;99.90;;;;;;5008251;28;20467;-78
2021/09/10 08:41:31;;;;;;;21.73;9.55;;;17.00;99.90;;;;;;5009680;28;20030;-78
2021/09/10 08:44:04;;;;;;;31.42;11.15;;;17.00;99.90;;;;;;5014134;28;20042;-78
2021/09/10 08:46:44;;;;;;;24.33;9.10;;;17.00;99.90;;;;;;5017693;28;20019;-79
2021/09/10 08:49:15;;;;;;;20.60;8.73;;;17.00;99.90;;;;;;5012811;28;20026;-80
2021/09/10 08:51:42;;;;;;;;;;;16.90;99.90;;;;;;5012835;28;20027;-79
2021/09/10 08:54:10;;;;;;;25.48;9.32;;;16.80;99.90;;;;;;5010803;28;20405;-78
2021/09/10 08:56:37;;;;;;;23.08;9.30;;;16.70;99.90;;;;;;5002320;28;20022;-78
2021/09/10 08:59:08;;;;;;;21.55;8.73;;;16.60;99.90;;;;;;4999233;28;20534;-79
2021/09/10 09:01:45;;;;;;;28.55;9.30;;;16.60;99.90;;;;;;5002734;28;20033;-78
2021/09/10 09:04:13;;;;;;;25.25;9.63;;;16.60;99.90;;;;;;5007888;28;20026;-80
2021/09/10 09:06:40;;;;;;;24.95;9.93;;;16.60;99.90;;;;;;5130069;23;20109;-78
2021/09/10 09:09:08;;;;;;;22.17;10.07;;;16.50;99.90;;;;;;5258265;23;20066;-80
2021/09/10 09:11:35;;;;;;;25.65;9.80;;;16.50;99.90;;;;;;5012917;28;20077;-80
2021/09/10 09:14:05;;;;;;;23.83;9.15;;;16.50;99.90;;;;;;5009463;28;20467;-78
2021/09/10 09:16:38;;;;;;;20.00;9.23;;;16.50;99.90;;;;;;5008522;28;20042;-80
2021/09/10 09:19:07;;;;;;;22.67;10.43;;;16.60;99.90;;;;;;5014220;28;20042;-78
2021/09/10 09:21:39;;;;;;;25.05;9.95;;;16.70;99.90;;;;;;5001269;28;20022;-77
2021/09/10 09:24:19;;;;;;;23.52;9.57;;;16.70;99.90;;;;;;4997916;28;20022;-77
2021/09/10 09:26:50;;;;;;;21.23;9.20;;;16.70;99.90;;;;;;4999293;28;20019;-78
2021/09/10 09:29:20;;;;;;;24.75;9.48;;;16.80;99.90;;;;;;5001659;28;20027;-78
2021/09/10 09:31:57;;;;;;;24.60;9.57;;;16.80;99.90;;;;;;4998163;28;20041;-77
2021/09/10 09:35:02;;;;;;;27.20;9.73;;;16.80;99.90;;;;;;4999748;28;20006;-78
2021/09/10 09:37:34;;;;;;;23.65;10.45;;;16.70;99.90;;;;;;4951355;29;20027;-78
2021/09/10 09:40:01;;;;;;;26.35;10.18;;;16.70;99.90;;;;;;4966378;29;20554;-78
2021/09/10 09:42:30;;;;;;;19.77;10.20;;;16.70;99.90;;;;;;4983640;28;20042;-79
2021/09/10 09:45:22;;;;;;;25.50;10.10;;;16.70;99.90;;;;;;5007163;28;20026;-79
2021/09/10 09:47:49;;;;;;;25.20;9.93;;;16.70;99.90;;;;;;4998247;28;20027;-76
2021/09/10 09:50:19;;;;;;;22.55;10.80;;;16.50;99.90;;;;;;4997459;28;20030;-77
2021/09/10 09:52:51;;;;;;;21.35;11.27;;;16.40;99.90;;;;;;4995077;28;20154;-77
2021/09/10 09:55:19;;;;;;;25.02;11.15;;;16.30;99.90;;;;;;4995848;28;20046;-79
2021/09/10 09:57:47;;;;;;;17.08;10.07;;;16.30;99.90;;;;;;4995654;28;20033;-78
2021/09/10 10:00:14;;;;;;;23.63;11.25;;;16.20;99.90;;;;;;4997800;28;20022;-79
2021/09/10 10:02:42;;;;;;;26.02;11.65;;;16.10;99.90;;;;;;4996330;28;20022;-79
2021/09/10 10:05:10;;;;;;;22.98;10.85;;;16.20;99.90;;;;;;4998080;28;20027;-78
2021/09/10 10:07:59;;;;;;;24.23;10.77;;;16.10;99.90;;;;;;4997345;28;20022;-78
2021/09/10 10:10:29;;;;;;;28.13;11.38;;;15.90;99.90;;;;;;4997787;28;20038;-78
2021/09/10 10:12:59;;;;;;;24.17;11.30;;;15.80;99.90;;;;;;4995081;28;20029;-77
2021/09/10 10:15:28;;;;;;;28.60;11.57;;;15.70;99.90;;;;;;4998176;28;20034;-77
2021/09/10 10:17:57;;;;;;;31.20;12.73;;;15.70;99.90;;;;;;4998470;28;20494;-76
2021/09/10 10:20:49;;;;;;;23.98;11.73;;;15.70;99.90;;;;;;5002414;28;20026;-77
2021/09/10 10:23:43;;;;;;;25.48;11.73;;;15.70;99.90;;;;;;5000291;28;20464;-79
2021/09/10 10:26:36;;;;;;;25.90;11.90;;;15.70;99.90;;;;;;4994972;28;20117;-79
2021/09/10 10:29:10;;;;;;;26.92;12.93;;;15.80;99.90;;;;;;4995695;28;20467;-78
2021/09/10 10:32:06;;;;;;;20.40;12.18;;;15.80;99.90;;;;;;4998066;28;20089;-78
2021/09/10 10:34:36;;;;;;;26.00;12.55;;;15.70;99.90;;;;;;4997029;28;20022;-78
2021/09/10 10:37:43;;;;;;;23.25;12.13;;;15.60;99.90;;;;;;4997802;28;20383;-79
2021/09/10 10:41:03;;;;;;;22.67;12.52;;;15.50;99.90;;;;;;4996794;28;20502;-79
2021/09/10 10:43:30;;;;;;;23.17;12.18;;;15.50;99.90;;;;;;4954264;29;20027;-80
2021/09/10 10:46:05;;;;;;;24.10;12.45;;;15.40;99.90;;;;;;5004492;28;20038;-79
2021/09/10 10:48:32;;;;;;;21.25;12.02;;;15.30;99.90;;;;;;5009246;28;20101;-78
2021/09/10 10:51:02;;;;;;;21.67;11.90;;;15.40;99.90;;;;;;5010258;28;20080;-79
2021/09/10 10:53:49;;;;;;;25.90;12.90;;;15.40;99.90;;;;;;5008526;28;20019;-78
2021/09/10 10:56:26;;;;;;;21.88;12.55;;;15.40;99.90;;;;;;5009213;28;20029;-77
2021/09/10 10:59:15;;;;;;;22.90;11.98;;;15.30;99.90;;;;;;5007826;28;20077;-79
2021/09/10 11:02:16;;;;;;;23.85;12.23;;;15.30;99.90;;;;;;5008898;28;20093;-78
2021/09/10 11:04:45;;;;;;;21.33;11.82;;;15.20;99.90;;;;;;5009592;28;20041;-79
2021/09/10 11:07:13;;;;;;;29.27;13.43;;;15.30;99.90;;;;;;5008964;28;20060;-79
2021/09/10 11:09:41;;;;;;;16.15;11.32;;;15.20;99.90;;;;;;5011266;28;20078;-79
2021/09/10 11:12:08;;;;;;;21.50;12.60;;;15.20;99.90;;;;;;5010056;28;20053;-79
2021/09/10 11:14:41;;;;;;;22.77;12.38;;;15.20;99.90;;;;;;5009624;28;20019;-79
2021/09/10 11:17:15;;;;;;;21.48;12.00;;;15.20;99.90;;;;;;5006292;28;20112;-79
2021/09/10 11:19:46;;;;;;;26.10;12.70;;;15.10;99.90;;;;;;5004388;28;20022;-80
2021/09/10 11:22:14;;;;;;;23.55;12.57;;;15.10;99.90;;;;;;5009117;28;20015;-80
2021/09/10 11:24:43;;;;;;;20.52;12.82;;;15.00;99.90;;;;;;5010197;28;20022;-80
2021/09/10 11:27:28;;;;;;;23.92;12.88;;;15.00;99.90;;;;;;5004244;28;20024;-80
2021/09/10 11:30:03;;;;;;;23.27;12.70;;;15.00;99.90;;;;;;4997958;28;20022;-79
2021/09/10 11:32:30;;;;;;;22.45;13.77;;;15.00;99.90;;;;;;4999104;28;20030;-79
2021/09/10 11:34:58;;;;;;;20.27;12.13;;;15.00;99.90;;;;;;5013108;28;20026;-80
2021/09/10 11:37:30;;;;;;;21.92;12.73;;;15.00;99.90;;;;;;5007135;28;20036;-80
2021/09/10 11:40:01;;;;;;;19.75;12.77;;;14.90;99.90;;;;;;5010319;28;20122;-79
2021/09/10 11:42:38;;;;;;;;;;;14.90;99.90;;;;;;5008398;28;20041;-77
2021/09/10 11:45:11;;;;;;;28.00;14.68;;;14.80;99.90;;;;;;5000495;28;19954;-79
2021/09/10 11:47:42;;;;;;;28.90;13.70;;;14.70;99.90;;;;;;4997880;28;20046;-79
2021/09/10 11:50:11;;;;;;;29.30;14.02;;;14.60;99.90;;;;;;4995250;28;20030;-78
2021/09/10 11:52:41;;;;;;;27.88;14.48;;;14.70;99.90;;;;;;4996490;28;20195;-79
2021/09/10 11:55:16;;;;;;;25.65;14.60;;;14.70;99.90;;;;;;4996156;28;20033;-78
2021/09/10 11:57:44;;;;;;;29.05;15.80;;;14.70;99.90;;;;;;4996656;28;20023;-79
2021/09/10 12:00:26;;;;;;;26.73;13.95;;;14.70;99.90;;;;;;4999197;28;20034;-78
2021/09/10 12:02:58;;;;;;;25.88;14.23;;;14.60;99.90;;;;;;5003836;28;20033;-79
2021/09/10 12:05:26;;;;;;;22.85;13.75;;;14.60;99.90;;;;;;5009535;28;20107;-78
2021/09/10 12:07:54;;;;;;;22.10;13.73;;;14.50;99.90;;;;;;5010062;28;20061;-78
2021/09/10 12:10:33;;;;;;;22.30;13.77;;;14.50;99.90;;;;;;5006810;28;20380;-79
2021/09/10 12:13:33;;;;;;;24.75;13.93;;;14.40;99.90;;;;;;4991158;28;20092;-79
2021/09/10 12:16:16;;;;;;;23.40;14.02;;;14.40;99.90;;;;;;5011997;28;20006;-78
2021/09/10 12:19:01;;;;;;;21.38;13.52;;;14.40;99.90;;;;;;5012617;28;20015;-79
2021/09/10 12:21:34;;;;;;;29.73;14.73;;;14.40;99.90;;;;;;5013033;28;20054;-79
2021/09/10 12:24:12;;;;;;;20.95;12.70;;;14.30;99.90;;;;;;5013458;28;20030;-80
2021/09/10 12:26:55;;;;;;;22.67;13.25;;;14.30;99.90;;;;;;5010884;28;20049;-79
2021/09/10 12:29:28;;;;;;;26.08;13.95;;;14.10;99.90;;;;;;5011149;28;20030;-79
2021/09/10 12:31:56;;;;;;;27.63;15.32;;;14.10;99.90;;;;;;5011111;28;20021;-79
2021/09/10 12:34:23;;;;;;;22.98;14.15;;;14.00;99.90;;;;;;5013784;28;20023;-79
2021/09/10 12:36:51;;;;;;;22.73;13.63;;;14.10;99.90;;;;;;5017831;28;20019;-80
2021/09/10 12:39:18;;;;;;;23.05;13.18;;;14.10;99.90;;;;;;5016228;28;20034;-81
2021/09/10 12:41:45;;;;;;;27.50;14.60;;;14.00;99.90;;;;;;5016449;28;20018;-79
2021/09/10 12:44:13;;;;;;;23.08;14.25;;;14.00;99.90;;;;;;5015561;28;20070;-79
2021/09/10 12:46:41;;;;;;;33.28;14.65;;;13.90;99.90;;;;;;5015380;28;20022;-79
2021/09/10 12:49:08;;;;;;;24.35;14.15;;;13.90;99.90;;;;;;5017521;28;20026;-79